| time (UTC) | temp C | wind direction | speed KPH | gust KPH | rain 1hr cm | rain 24hr cm | rain mn cm | humidity % | barometer mb |
| 20260510220024 | 20 | 232 | 0.0 | 8.0 | 0.00 | 0.30 | 0.00 | 60 | 1013.1 |
| 20260510214522 | 20 | 223 | 1.6 | 17.7 | 0.00 | 0.41 | 0.00 | 61 | 1013.1 |
| 20260510213022 | 20 | 265 | 1.6 | 16.1 | 0.00 | 0.41 | 0.00 | 60 | 1013.1 |
| 20260510211522 | 20 | 258 | 3.2 | 17.7 | 0.00 | 0.41 | 0.00 | 59 | 1012.9 |
| 20260510210021 | 21 | 222 | 3.2 | 14.5 | 0.00 | 0.41 | 0.00 | 56 | 1012.7 |
| 20260510204521 | 21 | 218 | 3.2 | 16.1 | 0.00 | 0.43 | 0.00 | 55 | 1012.5 |
| 20260510203021 | 21 | 228 | 4.8 | 16.1 | 0.00 | 0.43 | 0.00 | 53 | 1012.4 |
| 20260510201519 | 22 | 286 | 4.8 | 16.1 | 0.00 | 0.43 | 0.00 | 50 | 1012.3 |
| 20260510200019 | 22 | 284 | 3.2 | 16.1 | 0.00 | 0.43 | 0.00 | 52 | 1012.3 |
| 20260510194522 | 22 | 241 | 1.6 | 8.0 | 0.00 | 0.46 | 0.00 | 54 | 1012.3 |
| 20260510193017 | 23 | 276 | 3.2 | 16.1 | 0.00 | 0.46 | 0.00 | 53 | 1012.3 |
| 20260510191514 | 22 | 235 | 3.2 | 19.3 | 0.00 | 0.46 | 0.00 | 53 | 1012.4 |
| 20260510190011 | 22 | 314 | 1.6 | 12.9 | 0.00 | 0.51 | 0.00 | 57 | 1012.4 |
| 20260510184508 | 22 | 328 | 6.4 | 16.1 | 0.00 | 0.51 | 0.00 | 59 | 1012.6 |
| 20260510183007 | 21 | 209 | 0.0 | 9.7 | 0.00 | 0.51 | 0.00 | 66 | 1012.7 |
| 20260510181510 | 21 | 243 | 0.0 | 6.4 | 0.00 | 0.51 | 0.00 | 65 | 1012.7 |
| 20260510180005 | 21 | 231 | 1.6 | 6.4 | 0.00 | 0.69 | 0.00 | 67 | 1012.6 |
| 20260510174504 | 21 | 122 | 1.6 | 4.8 | 0.00 | 0.69 | 0.00 | 68 | 1012.5 |
| 20260510173108 | 20 | 121 | 0.0 | 4.8 | 0.00 | 0.69 | 0.00 | 71 | 1012.6 |
| 20260510171606 | 19 | 223 | 3.2 | 9.7 | 0.00 | 0.69 | 0.00 | 74 | 1012.6 |
| 20260510170053 | 19 | 202 | 0.0 | 9.7 | 0.00 | 0.69 | 0.00 | 74 | 1012.8 |
| 20260510164550 | 18 | 169 | 0.0 | 4.8 | 0.00 | 0.69 | 0.00 | 76 | 1012.9 |
| 20260510163047 | 18 | 126 | 0.0 | 8.0 | 0.00 | 0.69 | 0.00 | 79 | 1013.0 |
| 20260510161543 | 17 | 92 | 1.6 | 12.9 | 0.00 | 0.69 | 0.00 | 80 | 1013.2 |
| 20260510160039 | 16 | 134 | 0.0 | 11.3 | 0.00 | 0.69 | 0.00 | 83 | 1013.1 |
| 20260510154539 | 16 | 228 | 0.0 | 11.3 | 0.00 | 0.69 | 0.00 | 85 | 1013.2 |
| 20260510153034 | 15 | 207 | 0.0 | 11.3 | 0.00 | 0.69 | 0.00 | 87 | 1013.4 |
| 20260510151533 | 15 | 149 | 3.2 | 8.0 | 0.00 | 0.69 | 0.00 | 89 | 1013.3 |
| 20260510150025 | 15 | 198 | 0.0 | 4.8 | 0.00 | 0.69 | 0.00 | 91 | 1013.6 |
| 20260510144534 | 14 | 198 | 0.0 | 4.8 | 0.00 | 0.69 | 0.00 | 92 | 1013.5 |
| 20260510143025 | 13 | 288 | 0.0 | 4.8 | 0.00 | 0.69 | 0.00 | 92 | 1013.4 |
| 20260510141518 | 13 | 206 | 0.0 | 4.8 | 0.00 | 0.69 | 0.00 | 93 | 1013.4 |
| 20260510140016 | 13 | 229 | 0.0 | 4.8 | 0.00 | 0.69 | 0.00 | 93 | 1013.4 |
| 20260510134515 | 13 | 209 | 0.0 | 6.4 | 0.00 | 0.69 | 0.00 | 93 | 1013.3 |
| 20260510133019 | 13 | 222 | 3.2 | 9.7 | 0.00 | 0.69 | 0.00 | 93 | 1013.3 |
| 20260510131517 | 12 | 166 | 0.0 | 3.2 | 0.00 | 0.69 | 0.00 | 93 | 1013.1 |
| 20260510130015 | 12 | 211 | 0.0 | 3.2 | 0.00 | 0.69 | 0.00 | 93 | 1012.9 |
| 20260510124507 | 12 | 219 | 1.6 | 4.8 | 0.00 | 0.69 | 0.00 | 93 | 1013.0 |
| 20260510123006 | 12 | 209 | 0.0 | 0.0 | 0.00 | 0.69 | 0.00 | 93 | 1012.8 |
| 20260510121504 | 12 | 209 | 0.0 | 1.6 | 0.00 | 0.69 | 0.00 | 93 | 1012.6 |
| 20260510120004 | 12 | 274 | 0.0 | 0.0 | 0.00 | 0.69 | 0.00 | 93 | 1012.5 |
| 20260510114501 | 12 | 330 | 0.0 | 0.0 | 0.00 | 0.69 | 0.00 | 93 | 1012.4 |
| 20260510113100 | 11 | 336 | 0.0 | 0.0 | 0.00 | 0.69 | 0.00 | 93 | 1012.3 |
| 20260510111607 | 11 | 161 | 0.0 | 0.0 | 0.00 | 0.69 | 0.00 | 93 | 1012.0 |
| 20260510110058 | 11 | 115 | 0.0 | 0.0 | 0.00 | 0.69 | 0.00 | 93 | 1011.8 |
| 20260510104613 | 11 | 114 | 0.0 | 0.0 | 0.00 | 0.69 | 0.00 | 92 | 1011.9 |
| 20260510103056 | 11 | 114 | 0.0 | 0.0 | 0.00 | 0.69 | 0.00 | 92 | 1011.9 |
| 20260510101556 | 11 | 105 | 0.0 | 0.0 | 0.00 | 0.69 | 0.00 | 92 | 1011.8 |
| 20260510094555 | 11 | 105 | 0.0 | 0.0 | 0.00 | 0.69 | 0.00 | 92 | 1011.9 |
| 20260510093054 | 11 | 118 | 0.0 | 0.0 | 0.00 | 0.69 | 0.00 | 92 | 1012.0 |
| 20260510091553 | 11 | 118 | 0.0 | 0.0 | 0.00 | 0.69 | 0.00 | 92 | 1012.2 |
| 20260510090053 | 11 | 118 | 0.0 | 0.0 | 0.00 | 0.69 | 0.00 | 92 | 1012.4 |
| 20260510084552 | 11 | 118 | 0.0 | 0.0 | 0.00 | 0.69 | 0.00 | 92 | 1012.3 |
| 20260510083051 | 11 | 118 | 0.0 | 0.0 | 0.00 | 0.69 | 0.00 | 92 | 1012.3 |
| 20260510081603 | 11 | 118 | 0.0 | 0.0 | 0.00 | 0.69 | 0.00 | 92 | 1012.1 |
| 20260510080047 | 11 | 95 | 0.0 | 0.0 | 0.00 | 0.69 | 0.00 | 92 | 1011.4 |
| 20260510074547 | 11 | 95 | 0.0 | 0.0 | 0.00 | 0.69 | 0.00 | 92 | 1011.3 |
| 20260510073046 | 11 | 95 | 0.0 | 0.0 | 0.00 | 0.69 | 0.00 | 92 | 1011.3 |
| 20260510071546 | 11 | 95 | 0.0 | 0.0 | 0.00 | 0.69 | 0.00 | 92 | 1011.2 |
| 20260510070047 | 11 | 95 | 0.0 | 0.0 | 0.00 | 0.69 | 0.00 | 92 | 1011.4 |
| 20260510064544 | 11 | 95 | 0.0 | 0.0 | 0.00 | 0.69 | 0.00 | 92 | 1011.5 |
| 20260510063042 | 11 | 95 | 0.0 | 0.0 | 0.00 | 0.69 | 0.00 | 92 | 1011.4 |
| 20260510061540 | 11 | 95 | 0.0 | 0.0 | 0.00 | 0.69 | 0.00 | 92 | 1011.0 |
| 20260510060048 | 11 | 95 | 0.0 | 0.0 | 0.00 | 0.69 | 0.00 | 92 | 1011.1 |
| 20260510054537 | 11 | 95 | 0.0 | 0.0 | 0.00 | 0.69 | 0.00 | 92 | 1011.1 |
| 20260510053036 | 11 | 95 | 0.0 | 0.0 | 0.00 | 0.69 | 0.00 | 92 | 1011.2 |
| 20260510051542 | 11 | 95 | 0.0 | 0.0 | 0.00 | 0.69 | 0.00 | 91 | 1011.3 |
| 20260510050039 | 11 | 95 | 0.0 | 0.0 | 0.00 | 0.69 | 0.00 | 91 | 1011.3 |
| 20260510044536 | 11 | 95 | 0.0 | 0.0 | 0.00 | 0.69 | 0.00 | 91 | 1011.3 |
| 20260510043035 | 11 | 95 | 0.0 | 0.0 | 0.00 | 0.69 | 0.00 | 91 | 1011.4 |
| 20260510041531 | 11 | 95 | 0.0 | 0.0 | 0.00 | 0.69 | 0.00 | 91 | 1011.4 |
| 20260510040028 | 11 | 95 | 0.0 | 0.0 | 0.00 | 0.69 | 0.00 | 91 | 1011.3 |
| 20260510034527 | 11 | 95 | 0.0 | 0.0 | 0.00 | 0.69 | 0.69 | 91 | 1011.2 |
| 20260510033025 | 11 | 95 | 0.0 | 0.0 | 0.00 | 0.69 | 0.69 | 91 | 1011.0 |
| 20260510031533 | 11 | 95 | 0.0 | 0.0 | 0.00 | 0.69 | 0.69 | 91 | 1010.9 |
| 20260510030022 | 11 | 95 | 0.0 | 0.0 | 0.03 | 0.69 | 0.69 | 91 | 1010.9 |
| 20260510024520 | 11 | 95 | 0.0 | 0.0 | 0.03 | 0.69 | 0.69 | 91 | 1010.9 |
| 20260510023036 | 11 | 95 | 0.0 | 0.0 | 0.05 | 0.69 | 0.69 | 91 | 1011.0 |
| 20260510021520 | 11 | 95 | 0.0 | 0.0 | 0.10 | 0.69 | 0.69 | 90 | 1011.1 |
| 20260510020019 | 11 | 95 | 0.0 | 0.0 | 0.13 | 0.66 | 0.66 | 90 | 1011.0 |
| 20260510014631 | 11 | 95 | 0.0 | 0.0 | 0.15 | 0.66 | 0.66 | 90 | 1011.0 |